Bei Facebook empfehlenBei Twitter postenGoogle plusPinterest

Das Wetter im Erzgebirge am 31.03.2016

Wetter und Klima am 31.03.2016 Holzhau im Erzgebirge (630m ü.NN)
Letzte gemessene Temperatur und Uhrzeit der Messung23:45:00 Uhr2.70 °C
Temperatur (Maximum / Höchstwert) und Uhrzeit der Messung15:00:00 Uhr11.80 °C
Temperatur (Minimum / Tiefstwert) und Uhrzeit der Messung23:45:002.70 °C
Errechneter Absolutwert der Temperaturschwankungen zwischen Tmin und Tmax des Tages9.10 K
Errechnete Tagesmitteltemperatur6.19896 °C
Gesamt - Niederschlag des Tages (in flüssiger Form)3.11 Liter / m²
Luftdruck (Maximum / Höchstwert) und Zeitpunkt der Messung02:15:00 Uhr1008.90 hPa
Luftdruck (Minimum / Tiefstwert) und Zeitpunkt der Messung22:30:00 Uhr1006.10 hPa
Errechneter Absolutwert der Luftdruckschwankungen des Tages2.80 hPa
Höchste gemessene Windgeschwindigkeit und Uhrzeit der Messung23:45:00 Uhr0.00 km/h
Errechnete Windhäufigkeit in Relation zu den Messwerten des Tages0.00000 %
Niedrigste Windkühle (Windchill) und Zeitpunkt der Messung23:45:00 Uhr2.70 °C
Taupunkt (Maximum / Höchstwert) und Uhrzeit der Messung13:30:00 Uhr9.70 °C
Taupunkt (Minimum / Tiefstwert) und Uhrzeit der Messung23:45:001.70 °C
Anzahl der automatisch eingelesenen Messwerte 96

Detaillierte Wetter- und Klima- Messwerte für den 31.03.2016 in Holzhau im Erzgebirge (630m ü.NN)
ZeitTemperaturLuftdruckRel. LuftfeuchteWindWindrichtungWindchillTaupunktNiederschlag l/m²
23:45:002.70 °C1006.70 hPa93.00 %1.70 °C3.11
23:30:002.90 °C1007.10 hPa93.00 %1.90 °C3.11
23:15:003.10 °C1007.20 hPa93.00 %2.10 °C3.11
23:00:003.40 °C1007.20 hPa93.00 %2.40 °C3.11
22:45:003.60 °C1006.40 hPa93.00 %2.60 °C3.11
22:30:003.60 °C1006.10 hPa92.00 %2.40 °C2.59
22:15:003.90 °C1007.10 hPa92.00 %2.70 °C2.59
22:00:004.10 °C1006.70 hPa92.00 %2.90 °C1.56
21:45:004.20 °C1006.70 hPa92.00 %3.00 °C1.56
21:30:004.40 °C1006.20 hPa92.00 %3.20 °C1.56
21:15:004.40 °C1006.10 hPa92.00 %3.20 °C1.56
21:00:004.60 °C1006.20 hPa92.00 %3.40 °C1.56
20:45:004.90 °C1006.40 hPa92.00 %3.70 °C1.56
20:30:005.20 °C1006.10 hPa91.00 %3.90 °C1.56
20:15:005.40 °C1006.20 hPa91.00 %4.10 °C1.56
20:00:005.50 °C1006.40 hPa91.00 %4.20 °C1.56
19:45:005.60 °C1006.40 hPa91.00 %4.20 °C1.56
19:30:005.60 °C1006.50 hPa91.00 %4.20 °C1.56
19:15:005.80 °C1006.30 hPa91.00 %4.40 °C1.56
19:00:005.90 °C1006.70 hPa91.00 %4.50 °C1.56
18:45:006.00 °C1006.50 hPa90.00 %4.50 °C1.56
18:30:006.30 °C1006.20 hPa90.00 %4.80 °C1.56
18:15:006.40 °C1006.20 hPa89.00 %4.70 °C1.56
18:00:006.70 °C1006.40 hPa89.00 %5.00 °C1.56
17:45:006.90 °C1006.50 hPa89.00 %5.20 °C1.56
17:30:007.10 °C1006.70 hPa88.00 %5.30 °C1.56
17:15:007.30 °C1006.70 hPa88.00 %5.40 °C1.56
17:00:007.80 °C1007.00 hPa87.00 %5.80 °C1.56
16:45:008.40 °C1006.70 hPa86.00 %6.20 °C1.56
16:30:009.10 °C1006.90 hPa86.00 %6.90 °C1.56
16:15:009.40 °C1007.10 hPa85.00 %7.00 °C1.56
16:00:0010.10 °C1006.80 hPa85.00 %7.70 °C1.56
15:45:0010.20 °C1007.00 hPa85.00 %7.80 °C1.56
15:30:0010.30 °C1007.10 hPa85.00 %7.90 °C1.56
15:15:0010.80 °C1007.10 hPa84.00 %8.20 °C1.56
15:00:0011.80 °C1007.00 hPa85.00 %9.40 °C1.56
14:45:0011.30 °C1007.10 hPa84.00 %8.70 °C1.56
14:30:0011.60 °C1007.20 hPa85.00 %9.20 °C1.56
14:15:0011.60 °C1007.30 hPa85.00 %9.20 °C1.56
14:00:0011.60 °C1007.20 hPa86.00 %9.30 °C1.56
13:45:0011.60 °C1007.20 hPa87.00 %9.50 °C1.56
13:30:0011.40 °C1007.40 hPa89.00 %9.70 °C1.56
13:15:0011.20 °C1007.60 hPa89.00 %9.50 °C1.56
13:00:0011.10 °C1007.70 hPa91.00 %9.70 °C1.56
12:45:009.80 °C1007.80 hPa92.00 %8.60 °C1.56
12:30:009.50 °C1007.80 hPa92.00 %8.30 °C1.56
12:15:008.90 °C1008.00 hPa92.00 %7.70 °C1.56
12:00:008.70 °C1008.10 hPa92.00 %7.50 °C1.56
11:45:008.30 °C1008.20 hPa93.00 %7.20 °C1.56
11:30:008.40 °C1008.30 hPa93.00 %7.30 °C1.56
11:15:008.60 °C1008.40 hPa93.00 %7.50 °C1.56
11:00:008.90 °C1008.00 hPa94.00 %8.00 °C1.56
10:45:009.10 °C1007.90 hPa94.00 %8.20 °C1.56
10:30:008.90 °C1007.80 hPa94.00 %8.00 °C1.56
10:15:008.40 °C1007.90 hPa95.00 %7.60 °C1.56
10:00:008.10 °C1008.20 hPa95.00 %7.30 °C1.56
09:45:008.00 °C1008.30 hPa95.00 %7.20 °C1.56
09:30:007.80 °C1008.20 hPa95.00 %7.10 °C1.56
09:15:006.80 °C1008.30 hPa95.00 %6.10 °C1.56
09:00:006.20 °C1008.10 hPa95.00 %5.50 °C1.56
08:45:005.60 °C1008.30 hPa95.00 %4.90 °C1.56
08:30:005.10 °C1008.10 hPa94.00 %4.20 °C1.56
08:15:004.90 °C1008.40 hPa94.00 %4.00 °C1.56
08:00:004.70 °C1008.30 hPa94.00 %3.80 °C1.56
07:45:004.50 °C1008.40 hPa94.00 %3.60 °C1.56
07:30:004.40 °C1008.60 hPa94.00 %3.50 °C1.56
07:15:004.30 °C1008.50 hPa94.00 %3.40 °C1.56
07:00:004.20 °C1008.70 hPa94.00 %3.30 °C1.56
06:45:004.10 °C1008.50 hPa94.00 %3.20 °C1.04
06:30:004.10 °C1008.50 hPa94.00 %3.20 °C0.52
06:15:004.10 °C1008.20 hPa94.00 %3.20 °C0.52
06:00:003.90 °C1008.00 hPa94.00 %3.00 °C0.52
05:45:003.90 °C1008.00 hPa94.00 %3.00 °C0.52
05:30:003.90 °C1008.30 hPa93.00 %2.90 °C0.52
05:15:003.90 °C1008.20 hPa93.00 %2.90 °C0.52
05:00:003.90 °C1008.00 hPa93.00 %2.90 °C0.52
04:45:004.00 °C1008.30 hPa93.00 %3.00 °C0.52
04:30:003.90 °C1008.60 hPa93.00 %2.90 °C0.52
04:15:003.80 °C1008.60 hPa93.00 %2.80 °C0.52
04:00:003.80 °C1008.50 hPa93.00 %2.80 °C0.52
03:45:003.80 °C1008.50 hPa93.00 %2.80 °C0.52
03:30:003.80 °C1008.60 hPa93.00 %2.80 °C0.52
03:15:003.80 °C1008.70 hPa93.00 %2.80 °C0.52
03:00:003.80 °C1008.80 hPa92.00 %2.60 °C 
02:45:003.90 °C1008.60 hPa93.00 %2.90 °C 
02:30:003.90 °C1008.30 hPa93.00 %2.90 °C 
02:15:003.90 °C1008.90 hPa92.00 %2.70 °C 
02:00:003.80 °C1008.70 hPa92.00 %2.60 °C 
01:45:003.80 °C1008.70 hPa92.00 %2.60 °C 
01:30:003.90 °C1008.70 hPa92.00 %2.70 °C 
01:15:003.90 °C1008.90 hPa92.00 %2.70 °C 
01:00:003.90 °C1008.60 hPa92.00 %2.70 °C 
00:45:003.80 °C1008.20 hPa92.00 %2.60 °C 
00:30:003.80 °C1008.60 hPa92.00 %2.60 °C 
00:15:003.60 °C1008.50 hPa91.00 %2.30 °C 
00:00:003.50 °C1008.80 hPa91.00 %2.20 °C 

Permanenter Link zu dieser Seite: Wetter im Erzgebirge am 31.03.2016
Performance-Info: Die Erstellung der Seite / Statistik(en) / Tabelle(n) erforderte 5 Datenbankserver-Abfrage(n) und dauerte 124 Millisekunden. (Dieser Messwert ist von der Gesamt-Auslastung des Servers abhängig.)
Erzgebirge - Wetter | Erzgebirge - Wetter (Mobilgeräte) | Komplette Klimadatenbank